Emporium, Pennsylvania
Current Conditions -  °F | °C
As of 4:53 AM on Saturday 29 Nov 2014 (Local Time) from KBFD Reporting Station
Overcast Overcast  
Wind Chill: -10°   Ceiling: 5500
Heat Index: -6°   Visibility: 9mi
Dew Point: -8°   Wind: 6mph
Humidity: 85%   Direction: NA
Pressure: 30.09"   Gusts: NA
Location:  41.51°N, 78.24°W
Report Text: KBFD 290953Z AUTO VRB05KT 9SM OVC055 M06/M08 A3009 RMK AO2 SNE37 SLP219 P0000 T10611083
Loading
Personal Weather Stations






























Interactive Weather Map New forecast layout! Learn more

10-Day Weather Forecast

Advertisements
Track Severe Weather on mobile